sensor_id;sensor_type;location;lat;lon;timestamp;temperature;humidity
336;DHT22;156;48.738;9.228;2023-03-14T00:00:48;9.20;99.90
336;DHT22;156;48.738;9.228;2023-03-14T00:03:15;9.20;99.90
336;DHT22;156;48.738;9.228;2023-03-14T00:05:42;9.20;99.90
336;DHT22;156;48.738;9.228;2023-03-14T00:08:10;9.20;99.90
336;DHT22;156;48.738;9.228;2023-03-14T00:10:37;9.20;99.90
336;DHT22;156;48.738;9.228;2023-03-14T00:13:04;9.20;99.90
336;DHT22;156;48.738;9.228;2023-03-14T00:15:32;9.20;99.90
336;DHT22;156;48.738;9.228;2023-03-14T00:18:00;9.20;99.90
336;DHT22;156;48.738;9.228;2023-03-14T00:20:27;9.20;99.90
336;DHT22;156;48.738;9.228;2023-03-14T00:22:54;9.20;99.90
336;DHT22;156;48.738;9.228;2023-03-14T00:25:22;9.20;99.90
336;DHT22;156;48.738;9.228;2023-03-14T00:27:50;9.20;99.90
336;DHT22;156;48.738;9.228;2023-03-14T00:30:17;9.20;99.90
336;DHT22;156;48.738;9.228;2023-03-14T00:32:44;9.30;99.90
336;DHT22;156;48.738;9.228;2023-03-14T00:35:11;9.30;99.90
336;DHT22;156;48.738;9.228;2023-03-14T00:37:38;9.30;99.90
336;DHT22;156;48.738;9.228;2023-03-14T00:40:06;9.30;99.90
336;DHT22;156;48.738;9.228;2023-03-14T00:42:35;9.30;99.90
336;DHT22;156;48.738;9.228;2023-03-14T00:45:02;9.30;99.90
336;DHT22;156;48.738;9.228;2023-03-14T00:47:29;9.40;99.90
336;DHT22;156;48.738;9.228;2023-03-14T00:49:56;9.40;99.90
336;DHT22;156;48.738;9.228;2023-03-14T00:52:23;9.40;99.90
336;DHT22;156;48.738;9.228;2023-03-14T00:54:49;9.50;99.90
336;DHT22;156;48.738;9.228;2023-03-14T00:57:16;9.40;99.90
336;DHT22;156;48.738;9.228;2023-03-14T00:59:44;9.40;99.90
336;DHT22;156;48.738;9.228;2023-03-14T01:02:11;9.40;99.90
336;DHT22;156;48.738;9.228;2023-03-14T01:04:38;9.40;99.90
336;DHT22;156;48.738;9.228;2023-03-14T01:07:08;9.40;99.90
336;DHT22;156;48.738;9.228;2023-03-14T01:09:35;9.40;99.90
336;DHT22;156;48.738;9.228;2023-03-14T01:12:02;9.40;99.90
336;DHT22;156;48.738;9.228;2023-03-14T01:14:29;9.40;99.90
336;DHT22;156;48.738;9.228;2023-03-14T01:16:57;9.40;99.90
336;DHT22;156;48.738;9.228;2023-03-14T01:19:26;9.40;99.90
336;DHT22;156;48.738;9.228;2023-03-14T01:21:53;9.40;99.90
336;DHT22;156;48.738;9.228;2023-03-14T01:24:20;9.40;99.50
336;DHT22;156;48.738;9.228;2023-03-14T01:26:47;9.40;94.60
336;DHT22;156;48.738;9.228;2023-03-14T01:29:14;9.40;92.70
336;DHT22;156;48.738;9.228;2023-03-14T01:31:40;9.50;90.50
336;DHT22;156;48.738;9.228;2023-03-14T01:34:09;9.50;85.30
336;DHT22;156;48.738;9.228;2023-03-14T01:36:35;9.50;79.80
336;DHT22;156;48.738;9.228;2023-03-14T01:39:03;9.50;79.90
336;DHT22;156;48.738;9.228;2023-03-14T01:41:32;9.50;82.70
336;DHT22;156;48.738;9.228;2023-03-14T01:43:59;9.50;83.40
336;DHT22;156;48.738;9.228;2023-03-14T01:46:29;9.50;83.70
336;DHT22;156;48.738;9.228;2023-03-14T01:51:51;9.50;83.60
336;DHT22;156;48.738;9.228;2023-03-14T01:54:22;9.40;90.80
336;DHT22;156;48.738;9.228;2023-03-14T01:56:53;9.40;83.90
336;DHT22;156;48.738;9.228;2023-03-14T01:59:22;9.40;82.80
336;DHT22;156;48.738;9.228;2023-03-14T02:01:51;9.40;87.50
336;DHT22;156;48.738;9.228;2023-03-14T02:04:19;9.30;76.50
336;DHT22;156;48.738;9.228;2023-03-14T02:06:56;9.30;80.10
336;DHT22;156;48.738;9.228;2023-03-14T02:09:25;9.30;86.10
336;DHT22;156;48.738;9.228;2023-03-14T02:11:52;9.30;84.50
336;DHT22;156;48.738;9.228;2023-03-14T02:14:29;9.20;85.60
336;DHT22;156;48.738;9.228;2023-03-14T02:16:57;9.20;88.50
336;DHT22;156;48.738;9.228;2023-03-14T02:19:34;9.30;78.60
336;DHT22;156;48.738;9.228;2023-03-14T02:22:07;9.30;77.20
336;DHT22;156;48.738;9.228;2023-03-14T02:24:43;9.30;80.40
336;DHT22;156;48.738;9.228;2023-03-14T02:27:15;9.20;83.10
336;DHT22;156;48.738;9.228;2023-03-14T02:29:49;9.20;84.00
336;DHT22;156;48.738;9.228;2023-03-14T02:32:19;9.20;78.90
336;DHT22;156;48.738;9.228;2023-03-14T02:34:49;9.20;84.40
336;DHT22;156;48.738;9.228;2023-03-14T02:37:18;9.20;83.60
336;DHT22;156;48.738;9.228;2023-03-14T02:39:46;9.20;84.20
336;DHT22;156;48.738;9.228;2023-03-14T02:42:16;9.10;83.90
336;DHT22;156;48.738;9.228;2023-03-14T02:44:49;9.20;85.20
336;DHT22;156;48.738;9.228;2023-03-14T02:47:19;9.10;86.40
336;DHT22;156;48.738;9.228;2023-03-14T02:49:46;9.10;86.60
336;DHT22;156;48.738;9.228;2023-03-14T02:52:14;9.10;84.80
336;DHT22;156;48.738;9.228;2023-03-14T02:54:40;9.10;87.50
336;DHT22;156;48.738;9.228;2023-03-14T02:57:08;9.10;88.40
336;DHT22;156;48.738;9.228;2023-03-14T02:59:36;9.10;83.40
336;DHT22;156;48.738;9.228;2023-03-14T03:02:03;9.10;83.80
336;DHT22;156;48.738;9.228;2023-03-14T03:04:30;9.10;84.10
336;DHT22;156;48.738;9.228;2023-03-14T03:06:57;9.00;90.30
336;DHT22;156;48.738;9.228;2023-03-14T03:09:24;9.00;87.60
336;DHT22;156;48.738;9.228;2023-03-14T03:11:51;9.00;83.10
336;DHT22;156;48.738;9.228;2023-03-14T03:14:18;9.00;81.40
336;DHT22;156;48.738;9.228;2023-03-14T03:16:46;9.00;83.60
336;DHT22;156;48.738;9.228;2023-03-14T03:19:12;8.90;80.50
336;DHT22;156;48.738;9.228;2023-03-14T03:21:41;9.00;73.20
336;DHT22;156;48.738;9.228;2023-03-14T03:24:08;9.00;77.80
336;DHT22;156;48.738;9.228;2023-03-14T03:26:35;9.00;71.30
336;DHT22;156;48.738;9.228;2023-03-14T03:29:02;9.00;61.60
336;DHT22;156;48.738;9.228;2023-03-14T03:31:29;9.00;52.10
336;DHT22;156;48.738;9.228;2023-03-14T03:33:57;9.00;46.20
336;DHT22;156;48.738;9.228;2023-03-14T03:36:25;9.00;43.20
336;DHT22;156;48.738;9.228;2023-03-14T03:38:52;8.90;39.50
336;DHT22;156;48.738;9.228;2023-03-14T03:41:19;9.00;33.30
336;DHT22;156;48.738;9.228;2023-03-14T03:43:49;9.00;22.00
336;DHT22;156;48.738;9.228;2023-03-14T03:46:16;9.00;22.00
336;DHT22;156;48.738;9.228;2023-03-14T03:48:43;9.00;21.80
336;DHT22;156;48.738;9.228;2023-03-14T03:51:14;9.00;13.80
336;DHT22;156;48.738;9.228;2023-03-14T03:53:41;8.90;12.80
336;DHT22;156;48.738;9.228;2023-03-14T03:56:08;9.00;6.20
336;DHT22;156;48.738;9.228;2023-03-14T03:58:35;8.90;5.30
336;DHT22;156;48.738;9.228;2023-03-14T04:01:04;8.90;5.00
336;DHT22;156;48.738;9.228;2023-03-14T04:03:32;8.90;1.00
336;DHT22;156;48.738;9.228;2023-03-14T04:05:59;8.80;1.00
336;DHT22;156;48.738;9.228;2023-03-14T04:08:29;8.80;3.30
336;DHT22;156;48.738;9.228;2023-03-14T04:10:57;8.80;1.00
336;DHT22;156;48.738;9.228;2023-03-14T04:13:24;8.80;1.00
336;DHT22;156;48.738;9.228;2023-03-14T04:15:52;8.80;1.00
336;DHT22;156;48.738;9.228;2023-03-14T04:18:19;8.80;1.00
336;DHT22;156;48.738;9.228;2023-03-14T04:20:50;8.80;1.00
336;DHT22;156;48.738;9.228;2023-03-14T04:23:17;8.70;1.00
336;DHT22;156;48.738;9.228;2023-03-14T04:25:45;8.70;1.00
336;DHT22;156;48.738;9.228;2023-03-14T04:28:12;8.80;1.00
336;DHT22;156;48.738;9.228;2023-03-14T04:30:39;8.70;1.00
336;DHT22;156;48.738;9.228;2023-03-14T04:33:06;8.80;1.00
336;DHT22;156;48.738;9.228;2023-03-14T04:35:34;8.70;1.00
336;DHT22;156;48.738;9.228;2023-03-14T04:38:02;8.70;1.00
336;DHT22;156;48.738;9.228;2023-03-14T04:40:29;8.70;1.00
336;DHT22;156;48.738;9.228;2023-03-14T04:42:57;8.70;1.00
336;DHT22;156;48.738;9.228;2023-03-14T04:45:24;8.70;1.00
336;DHT22;156;48.738;9.228;2023-03-14T04:47:51;8.70;1.00
336;DHT22;156;48.738;9.228;2023-03-14T04:50:18;8.70;1.00
336;DHT22;156;48.738;9.228;2023-03-14T04:52:45;8.70;1.00
336;DHT22;156;48.738;9.228;2023-03-14T04:55:12;8.70;1.00
336;DHT22;156;48.738;9.228;2023-03-14T04:57:38;8.60;1.00
336;DHT22;156;48.738;9.228;2023-03-14T05:00:08;8.70;1.00
336;DHT22;156;48.738;9.228;2023-03-14T05:02:36;8.60;1.00
336;DHT22;156;48.738;9.228;2023-03-14T05:05:03;8.70;1.00
336;DHT22;156;48.738;9.228;2023-03-14T05:07:30;8.70;1.00
336;DHT22;156;48.738;9.228;2023-03-14T05:09:57;8.70;1.00
336;DHT22;156;48.738;9.228;2023-03-14T05:12:24;8.70;1.00
336;DHT22;156;48.738;9.228;2023-03-14T05:14:51;8.60;1.00
336;DHT22;156;48.738;9.228;2023-03-14T05:17:19;8.60;1.00
336;DHT22;156;48.738;9.228;2023-03-14T05:19:46;8.60;1.00
336;DHT22;156;48.738;9.228;2023-03-14T05:22:13;8.60;1.00
336;DHT22;156;48.738;9.228;2023-03-14T05:24:40;8.60;1.00
336;DHT22;156;48.738;9.228;2023-03-14T05:27:07;8.60;1.00
336;DHT22;156;48.738;9.228;2023-03-14T05:29:34;8.60;1.00
336;DHT22;156;48.738;9.228;2023-03-14T05:32:00;8.70;1.00
336;DHT22;156;48.738;9.228;2023-03-14T05:34:29;8.70;1.00
336;DHT22;156;48.738;9.228;2023-03-14T05:36:56;8.60;1.00
336;DHT22;156;48.738;9.228;2023-03-14T05:39:23;8.70;1.00
336;DHT22;156;48.738;9.228;2023-03-14T05:41:50;8.70;1.00
336;DHT22;156;48.738;9.228;2023-03-14T05:44:19;8.70;1.00
336;DHT22;156;48.738;9.228;2023-03-14T05:46:46;8.80;1.00
336;DHT22;156;48.738;9.228;2023-03-14T05:49:13;8.80;1.00
336;DHT22;156;48.738;9.228;2023-03-14T05:51:42;8.80;1.00
336;DHT22;156;48.738;9.228;2023-03-14T05:54:08;8.80;1.00
336;DHT22;156;48.738;9.228;2023-03-14T05:56:35;8.80;1.00
336;DHT22;156;48.738;9.228;2023-03-14T05:59:02;8.80;1.00
336;DHT22;156;48.738;9.228;2023-03-14T06:01:29;8.80;1.00
336;DHT22;156;48.738;9.228;2023-03-14T06:03:56;8.80;1.00
336;DHT22;156;48.738;9.228;2023-03-14T06:06:23;8.80;1.00
336;DHT22;156;48.738;9.228;2023-03-14T06:08:51;8.80;1.00
336;DHT22;156;48.738;9.228;2023-03-14T06:11:18;8.70;1.00
336;DHT22;156;48.738;9.228;2023-03-14T06:13:45;8.70;1.00
336;DHT22;156;48.738;9.228;2023-03-14T06:16:12;8.70;1.00
336;DHT22;156;48.738;9.228;2023-03-14T06:18:40;8.70;1.00
336;DHT22;156;48.738;9.228;2023-03-14T06:21:07;8.70;1.00
336;DHT22;156;48.738;9.228;2023-03-14T06:23:36;8.70;1.00
336;DHT22;156;48.738;9.228;2023-03-14T06:26:04;8.70;1.00
336;DHT22;156;48.738;9.228;2023-03-14T06:28:33;8.70;1.00
336;DHT22;156;48.738;9.228;2023-03-14T06:31:00;8.70;1.00
336;DHT22;156;48.738;9.228;2023-03-14T06:33:27;8.80;1.00
336;DHT22;156;48.738;9.228;2023-03-14T06:35:54;8.80;1.00
336;DHT22;156;48.738;9.228;2023-03-14T06:38:21;8.80;1.00
336;DHT22;156;48.738;9.228;2023-03-14T06:40:48;8.80;1.00
336;DHT22;156;48.738;9.228;2023-03-14T06:43:16;8.90;1.00
336;DHT22;156;48.738;9.228;2023-03-14T06:45:43;8.80;1.00
336;DHT22;156;48.738;9.228;2023-03-14T06:48:10;8.90;1.00
336;DHT22;156;48.738;9.228;2023-03-14T06:50:37;8.90;1.00
336;DHT22;156;48.738;9.228;2023-03-14T06:53:03;8.90;1.00
336;DHT22;156;48.738;9.228;2023-03-14T06:55:30;8.90;1.00
336;DHT22;156;48.738;9.228;2023-03-14T06:57:57;8.90;1.00
336;DHT22;156;48.738;9.228;2023-03-14T07:00:25;8.90;1.00
336;DHT22;156;48.738;9.228;2023-03-14T07:02:52;9.00;1.00
336;DHT22;156;48.738;9.228;2023-03-14T07:05:19;9.10;1.00
336;DHT22;156;48.738;9.228;2023-03-14T07:07:46;9.10;1.00
336;DHT22;156;48.738;9.228;2023-03-14T07:10:13;9.20;1.00
336;DHT22;156;48.738;9.228;2023-03-14T07:12:40;9.20;1.00
336;DHT22;156;48.738;9.228;2023-03-14T07:15:08;9.20;1.00
336;DHT22;156;48.738;9.228;2023-03-14T07:17:36;9.10;1.00
336;DHT22;156;48.738;9.228;2023-03-14T07:20:03;9.20;1.00
336;DHT22;156;48.738;9.228;2023-03-14T07:22:31;9.30;1.00
336;DHT22;156;48.738;9.228;2023-03-14T07:24:58;9.30;1.00
336;DHT22;156;48.738;9.228;2023-03-14T07:27:25;9.30;1.00
336;DHT22;156;48.738;9.228;2023-03-14T07:29:52;9.40;1.00
336;DHT22;156;48.738;9.228;2023-03-14T07:32:19;9.40;1.00
336;DHT22;156;48.738;9.228;2023-03-14T07:34:47;9.40;1.00
336;DHT22;156;48.738;9.228;2023-03-14T07:37:14;9.50;1.00
336;DHT22;156;48.738;9.228;2023-03-14T07:39:41;9.60;1.00
336;DHT22;156;48.738;9.228;2023-03-14T07:42:08;9.60;1.00
336;DHT22;156;48.738;9.228;2023-03-14T07:44:36;9.80;1.00
336;DHT22;156;48.738;9.228;2023-03-14T07:47:03;9.70;1.00
336;DHT22;156;48.738;9.228;2023-03-14T07:49:30;9.70;1.00
336;DHT22;156;48.738;9.228;2023-03-14T07:51:58;9.70;1.00
336;DHT22;156;48.738;9.228;2023-03-14T07:54:25;9.80;1.00
336;DHT22;156;48.738;9.228;2023-03-14T07:56:52;9.90;1.00
336;DHT22;156;48.738;9.228;2023-03-14T07:59:19;10.00;1.00
336;DHT22;156;48.738;9.228;2023-03-14T08:01:46;10.10;1.00
336;DHT22;156;48.738;9.228;2023-03-14T08:04:13;10.20;1.00
336;DHT22;156;48.738;9.228;2023-03-14T08:06:40;10.20;1.00
336;DHT22;156;48.738;9.228;2023-03-14T08:09:08;10.20;1.00
336;DHT22;156;48.738;9.228;2023-03-14T08:11:35;10.30;1.00
336;DHT22;156;48.738;9.228;2023-03-14T08:14:02;10.30;1.00
336;DHT22;156;48.738;9.228;2023-03-14T08:16:29;10.40;1.00
336;DHT22;156;48.738;9.228;2023-03-14T08:18:56;10.40;1.00
336;DHT22;156;48.738;9.228;2023-03-14T08:21:23;10.40;1.00
336;DHT22;156;48.738;9.228;2023-03-14T08:23:50;10.40;1.00
336;DHT22;156;48.738;9.228;2023-03-14T08:26:18;10.50;1.00
336;DHT22;156;48.738;9.228;2023-03-14T08:28:45;10.50;1.00
336;DHT22;156;48.738;9.228;2023-03-14T08:31:11;10.50;1.00
336;DHT22;156;48.738;9.228;2023-03-14T08:33:38;10.60;1.00
336;DHT22;156;48.738;9.228;2023-03-14T08:36:06;10.60;1.00
336;DHT22;156;48.738;9.228;2023-03-14T08:38:33;10.60;1.00
336;DHT22;156;48.738;9.228;2023-03-14T08:41:01;10.70;1.00
336;DHT22;156;48.738;9.228;2023-03-14T08:43:30;10.80;1.00
336;DHT22;156;48.738;9.228;2023-03-14T08:45:58;11.00;1.00
336;DHT22;156;48.738;9.228;2023-03-14T08:48:25;11.20;1.00
336;DHT22;156;48.738;9.228;2023-03-14T08:50:53;11.30;1.00
336;DHT22;156;48.738;9.228;2023-03-14T08:53:19;11.20;1.00
336;DHT22;156;48.738;9.228;2023-03-14T08:55:51;11.30;1.00
336;DHT22;156;48.738;9.228;2023-03-14T08:58:18;11.40;1.00
336;DHT22;156;48.738;9.228;2023-03-14T09:00:46;11.50;1.00
336;DHT22;156;48.738;9.228;2023-03-14T09:03:13;11.30;1.00
336;DHT22;156;48.738;9.228;2023-03-14T09:05:41;11.20;1.00
336;DHT22;156;48.738;9.228;2023-03-14T09:08:08;11.30;1.00
336;DHT22;156;48.738;9.228;2023-03-14T09:10:34;10.90;1.00
336;DHT22;156;48.738;9.228;2023-03-14T09:13:01;10.80;1.00
336;DHT22;156;48.738;9.228;2023-03-14T09:15:28;10.70;1.00
336;DHT22;156;48.738;9.228;2023-03-14T09:17:56;10.60;1.00
336;DHT22;156;48.738;9.228;2023-03-14T09:20:23;10.40;1.00
336;DHT22;156;48.738;9.228;2023-03-14T09:22:50;10.30;1.00
336;DHT22;156;48.738;9.228;2023-03-14T09:25:17;10.20;1.00
336;DHT22;156;48.738;9.228;2023-03-14T09:27:44;10.10;1.00
336;DHT22;156;48.738;9.228;2023-03-14T09:30:11;10.10;1.00
336;DHT22;156;48.738;9.228;2023-03-14T09:32:38;10.30;1.00
336;DHT22;156;48.738;9.228;2023-03-14T09:35:07;10.40;1.00
336;DHT22;156;48.738;9.228;2023-03-14T09:37:35;10.60;1.00
336;DHT22;156;48.738;9.228;2023-03-14T09:40:02;10.80;1.00
336;DHT22;156;48.738;9.228;2023-03-14T09:42:37;10.60;1.00
336;DHT22;156;48.738;9.228;2023-03-14T09:45:06;10.80;1.00
336;DHT22;156;48.738;9.228;2023-03-14T09:47:36;10.90;1.00
336;DHT22;156;48.738;9.228;2023-03-14T09:50:09;10.90;1.00
336;DHT22;156;48.738;9.228;2023-03-14T09:52:39;10.90;1.00
336;DHT22;156;48.738;9.228;2023-03-14T09:55:12;11.00;1.00
336;DHT22;156;48.738;9.228;2023-03-14T09:57:41;10.80;1.00
336;DHT22;156;48.738;9.228;2023-03-14T10:00:14;10.80;1.00
336;DHT22;156;48.738;9.228;2023-03-14T10:02:45;10.90;1.00
336;DHT22;156;48.738;9.228;2023-03-14T10:05:17;10.90;1.00
336;DHT22;156;48.738;9.228;2023-03-14T10:07:44;10.90;1.00
336;DHT22;156;48.738;9.228;2023-03-14T10:10:14;10.90;1.00
336;DHT22;156;48.738;9.228;2023-03-14T10:12:45;10.90;1.00
336;DHT22;156;48.738;9.228;2023-03-14T10:15:15;10.80;1.00
336;DHT22;156;48.738;9.228;2023-03-14T10:17:50;11.00;1.00
336;DHT22;156;48.738;9.228;2023-03-14T10:20:30;11.10;1.00
336;DHT22;156;48.738;9.228;2023-03-14T10:23:02;11.10;1.00
336;DHT22;156;48.738;9.228;2023-03-14T10:25:31;11.30;1.00
336;DHT22;156;48.738;9.228;2023-03-14T10:27:59;11.50;1.00
336;DHT22;156;48.738;9.228;2023-03-14T10:30:33;11.50;1.00
336;DHT22;156;48.738;9.228;2023-03-14T10:33:10;11.70;1.00
336;DHT22;156;48.738;9.228;2023-03-14T10:35:39;11.70;1.00
336;DHT22;156;48.738;9.228;2023-03-14T10:38:12;11.40;1.00
336;DHT22;156;48.738;9.228;2023-03-14T10:40:42;11.40;1.00
336;DHT22;156;48.738;9.228;2023-03-14T10:43:15;11.50;1.00
336;DHT22;156;48.738;9.228;2023-03-14T10:45:44;11.80;1.00
336;DHT22;156;48.738;9.228;2023-03-14T10:48:22;11.50;1.00
336;DHT22;156;48.738;9.228;2023-03-14T10:50:55;11.60;1.00
336;DHT22;156;48.738;9.228;2023-03-14T10:53:23;11.70;1.00
336;DHT22;156;48.738;9.228;2023-03-14T10:55:50;11.80;1.00
336;DHT22;156;48.738;9.228;2023-03-14T10:58:19;11.50;1.00
336;DHT22;156;48.738;9.228;2023-03-14T11:00:51;11.40;1.00
336;DHT22;156;48.738;9.228;2023-03-14T11:03:21;11.30;1.00
336;DHT22;156;48.738;9.228;2023-03-14T11:05:55;11.10;1.00
336;DHT22;156;48.738;9.228;2023-03-14T11:08:26;11.00;1.00
336;DHT22;156;48.738;9.228;2023-03-14T11:10:57;10.90;1.00
336;DHT22;156;48.738;9.228;2023-03-14T11:13:33;11.00;1.00
336;DHT22;156;48.738;9.228;2023-03-14T11:16:09;11.20;1.00
336;DHT22;156;48.738;9.228;2023-03-14T11:21:44;10.80;1.00
336;DHT22;156;48.738;9.228;2023-03-14T11:24:25;10.90;1.00
336;DHT22;156;48.738;9.228;2023-03-14T11:26:59;10.90;1.00
336;DHT22;156;48.738;9.228;2023-03-14T11:29:34;11.00;1.00
336;DHT22;156;48.738;9.228;2023-03-14T11:32:12;10.90;1.00
336;DHT22;156;48.738;9.228;2023-03-14T11:34:43;11.00;1.00
336;DHT22;156;48.738;9.228;2023-03-14T11:37:17;10.90;1.00
336;DHT22;156;48.738;9.228;2023-03-14T11:39:51;10.90;1.00
336;DHT22;156;48.738;9.228;2023-03-14T11:42:21;10.60;1.00
336;DHT22;156;48.738;9.228;2023-03-14T11:44:49;10.70;1.00
336;DHT22;156;48.738;9.228;2023-03-14T11:47:20;10.80;1.00
336;DHT22;156;48.738;9.228;2023-03-14T11:49:51;10.80;1.00
336;DHT22;156;48.738;9.228;2023-03-14T11:52:25;10.30;1.00
336;DHT22;156;48.738;9.228;2023-03-14T11:54:58;10.20;1.00
336;DHT22;156;48.738;9.228;2023-03-14T11:57:27;10.20;1.00
336;DHT22;156;48.738;9.228;2023-03-14T11:59:59;10.30;1.00
336;DHT22;156;48.738;9.228;2023-03-14T12:02:35;10.30;1.00
336;DHT22;156;48.738;9.228;2023-03-14T12:05:37;10.30;1.00
336;DHT22;156;48.738;9.228;2023-03-14T12:08:28;10.50;1.00
336;DHT22;156;48.738;9.228;2023-03-14T12:10:59;10.40;1.00
336;DHT22;156;48.738;9.228;2023-03-14T12:13:29;10.30;1.00
336;DHT22;156;48.738;9.228;2023-03-14T12:15:59;10.20;1.00
336;DHT22;156;48.738;9.228;2023-03-14T12:18:28;10.10;1.00
336;DHT22;156;48.738;9.228;2023-03-14T12:20:57;10.10;1.00
336;DHT22;156;48.738;9.228;2023-03-14T12:23:27;10.10;1.00
336;DHT22;156;48.738;9.228;2023-03-14T12:26:12;10.20;1.00
336;DHT22;156;48.738;9.228;2023-03-14T12:28:43;10.10;1.00
336;DHT22;156;48.738;9.228;2023-03-14T12:31:42;9.90;1.00
336;DHT22;156;48.738;9.228;2023-03-14T12:34:30;9.80;1.00
336;DHT22;156;48.738;9.228;2023-03-14T12:37:05;9.90;1.00
336;DHT22;156;48.738;9.228;2023-03-14T12:39:43;9.90;1.00
336;DHT22;156;48.738;9.228;2023-03-14T12:42:17;9.60;1.00
336;DHT22;156;48.738;9.228;2023-03-14T12:44:46;9.30;1.00
336;DHT22;156;48.738;9.228;2023-03-14T12:50:30;9.70;1.00
336;DHT22;156;48.738;9.228;2023-03-14T12:56:20;9.40;1.00
336;DHT22;156;48.738;9.228;2023-03-14T12:58:59;9.40;1.00
336;DHT22;156;48.738;9.228;2023-03-14T13:01:28;9.50;1.00
336;DHT22;156;48.738;9.228;2023-03-14T13:03:56;9.30;1.00
336;DHT22;156;48.738;9.228;2023-03-14T13:06:49;9.50;1.00
336;DHT22;156;48.738;9.228;2023-03-14T13:09:45;9.60;1.00
336;DHT22;156;48.738;9.228;2023-03-14T13:12:17;9.20;1.00
336;DHT22;156;48.738;9.228;2023-03-14T13:14:45;9.20;1.00
336;DHT22;156;48.738;9.228;2023-03-14T13:17:15;8.90;1.00
336;DHT22;156;48.738;9.228;2023-03-14T13:19:43;8.70;1.00
336;DHT22;156;48.738;9.228;2023-03-14T13:22:19;8.70;1.00
336;DHT22;156;48.738;9.228;2023-03-14T13:24:46;8.60;1.00
336;DHT22;156;48.738;9.228;2023-03-14T13:27:17;8.50;1.00
336;DHT22;156;48.738;9.228;2023-03-14T13:29:48;8.70;1.00
336;DHT22;156;48.738;9.228;2023-03-14T13:32:19;8.50;1.00
336;DHT22;156;48.738;9.228;2023-03-14T13:34:46;8.40;1.00
336;DHT22;156;48.738;9.228;2023-03-14T13:37:17;8.40;1.00
336;DHT22;156;48.738;9.228;2023-03-14T13:39:49;8.50;1.00
336;DHT22;156;48.738;9.228;2023-03-14T13:42:18;8.40;1.00
336;DHT22;156;48.738;9.228;2023-03-14T13:44:45;8.40;1.00
336;DHT22;156;48.738;9.228;2023-03-14T13:47:15;8.50;1.00
336;DHT22;156;48.738;9.228;2023-03-14T13:49:43;8.40;1.00
336;DHT22;156;48.738;9.228;2023-03-14T13:52:30;8.40;1.00
336;DHT22;156;48.738;9.228;2023-03-14T13:54:59;8.20;1.00
336;DHT22;156;48.738;9.228;2023-03-14T13:57:28;8.20;1.00
336;DHT22;156;48.738;9.228;2023-03-14T14:00:18;8.50;1.00
336;DHT22;156;48.738;9.228;2023-03-14T14:02:45;8.10;1.00
336;DHT22;156;48.738;9.228;2023-03-14T14:05:13;8.10;1.00
336;DHT22;156;48.738;9.228;2023-03-14T14:07:42;8.10;1.00
336;DHT22;156;48.738;9.228;2023-03-14T14:10:11;7.90;1.00
336;DHT22;156;48.738;9.228;2023-03-14T14:12:42;8.00;1.00
336;DHT22;156;48.738;9.228;2023-03-14T14:15:14;8.10;1.00
336;DHT22;156;48.738;9.228;2023-03-14T14:17:47;8.00;1.00
336;DHT22;156;48.738;9.228;2023-03-14T14:20:22;8.00;1.00
336;DHT22;156;48.738;9.228;2023-03-14T14:22:52;7.90;1.00
336;DHT22;156;48.738;9.228;2023-03-14T14:25:19;7.90;1.00
336;DHT22;156;48.738;9.228;2023-03-14T14:27:49;7.90;1.00
336;DHT22;156;48.738;9.228;2023-03-14T14:30:32;7.80;1.00
336;DHT22;156;48.738;9.228;2023-03-14T14:33:17;7.80;1.00
336;DHT22;156;48.738;9.228;2023-03-14T14:35:51;7.80;1.00
336;DHT22;156;48.738;9.228;2023-03-14T14:38:18;7.80;1.00
336;DHT22;156;48.738;9.228;2023-03-14T14:40:49;7.80;1.00
336;DHT22;156;48.738;9.228;2023-03-14T14:43:22;7.80;1.00
336;DHT22;156;48.738;9.228;2023-03-14T14:45:53;7.80;1.00
336;DHT22;156;48.738;9.228;2023-03-14T14:48:22;7.80;1.00
336;DHT22;156;48.738;9.228;2023-03-14T14:50:55;7.80;1.00
336;DHT22;156;48.738;9.228;2023-03-14T14:53:26;7.80;1.00
336;DHT22;156;48.738;9.228;2023-03-14T14:55:55;7.80;1.00
336;DHT22;156;48.738;9.228;2023-03-14T14:58:26;7.70;1.00
336;DHT22;156;48.738;9.228;2023-03-14T15:00:56;7.70;1.00
336;DHT22;156;48.738;9.228;2023-03-14T15:03:26;7.70;1.00
336;DHT22;156;48.738;9.228;2023-03-14T15:05:54;7.70;1.00
336;DHT22;156;48.738;9.228;2023-03-14T15:08:21;7.70;1.00
336;DHT22;156;48.738;9.228;2023-03-14T15:10:48;7.70;1.00
336;DHT22;156;48.738;9.228;2023-03-14T15:13:15;7.80;1.00
336;DHT22;156;48.738;9.228;2023-03-14T15:15:44;8.00;1.00
336;DHT22;156;48.738;9.228;2023-03-14T15:18:13;8.10;1.00
336;DHT22;156;48.738;9.228;2023-03-14T15:20:41;8.20;1.00
336;DHT22;156;48.738;9.228;2023-03-14T15:23:12;8.10;1.00
336;DHT22;156;48.738;9.228;2023-03-14T15:25:39;8.10;1.00
336;DHT22;156;48.738;9.228;2023-03-14T15:28:15;8.50;1.00
336;DHT22;156;48.738;9.228;2023-03-14T15:30:44;8.60;1.00
336;DHT22;156;48.738;9.228;2023-03-14T15:33:11;8.50;1.00
336;DHT22;156;48.738;9.228;2023-03-14T15:35:38;8.70;1.00
336;DHT22;156;48.738;9.228;2023-03-14T15:38:04;8.90;1.00
336;DHT22;156;48.738;9.228;2023-03-14T15:40:31;9.00;1.00
336;DHT22;156;48.738;9.228;2023-03-14T15:42:58;8.80;1.00
336;DHT22;156;48.738;9.228;2023-03-14T15:45:25;8.80;1.00
336;DHT22;156;48.738;9.228;2023-03-14T15:47:53;8.60;1.00
336;DHT22;156;48.738;9.228;2023-03-14T15:50:20;8.70;1.00
336;DHT22;156;48.738;9.228;2023-03-14T15:52:47;8.70;1.00
336;DHT22;156;48.738;9.228;2023-03-14T15:55:14;8.70;1.00
336;DHT22;156;48.738;9.228;2023-03-14T15:57:42;8.70;1.00
336;DHT22;156;48.738;9.228;2023-03-14T16:00:12;8.80;1.00
336;DHT22;156;48.738;9.228;2023-03-14T16:02:41;8.80;1.00
336;DHT22;156;48.738;9.228;2023-03-14T16:05:10;8.80;1.00
336;DHT22;156;48.738;9.228;2023-03-14T16:07:37;8.80;1.00
336;DHT22;156;48.738;9.228;2023-03-14T16:10:06;8.70;1.00
336;DHT22;156;48.738;9.228;2023-03-14T16:12:33;8.70;1.00
336;DHT22;156;48.738;9.228;2023-03-14T16:15:00;8.60;1.00
336;DHT22;156;48.738;9.228;2023-03-14T16:17:27;8.50;1.00
336;DHT22;156;48.738;9.228;2023-03-14T16:19:54;8.40;1.00
336;DHT22;156;48.738;9.228;2023-03-14T16:22:22;8.60;1.00
336;DHT22;156;48.738;9.228;2023-03-14T16:24:49;8.50;1.00
336;DHT22;156;48.738;9.228;2023-03-14T16:27:16;8.40;1.00
336;DHT22;156;48.738;9.228;2023-03-14T16:29:43;8.50;1.00
336;DHT22;156;48.738;9.228;2023-03-14T16:32:12;8.70;1.00
336;DHT22;156;48.738;9.228;2023-03-14T16:34:38;8.80;1.00
336;DHT22;156;48.738;9.228;2023-03-14T16:37:06;8.80;1.00
336;DHT22;156;48.738;9.228;2023-03-14T16:39:34;8.80;1.00
336;DHT22;156;48.738;9.228;2023-03-14T16:42:01;8.50;1.00
336;DHT22;156;48.738;9.228;2023-03-14T16:44:28;8.40;1.00
336;DHT22;156;48.738;9.228;2023-03-14T16:46:55;8.30;1.00
336;DHT22;156;48.738;9.228;2023-03-14T16:49:22;8.30;1.00
336;DHT22;156;48.738;9.228;2023-03-14T16:51:49;8.20;1.00
336;DHT22;156;48.738;9.228;2023-03-14T16:54:16;8.10;1.00
336;DHT22;156;48.738;9.228;2023-03-14T16:56:44;8.10;1.00
336;DHT22;156;48.738;9.228;2023-03-14T16:59:12;8.00;1.00
336;DHT22;156;48.738;9.228;2023-03-14T17:01:39;8.00;1.00
336;DHT22;156;48.738;9.228;2023-03-14T17:04:07;8.00;1.00
336;DHT22;156;48.738;9.228;2023-03-14T17:06:35;8.00;1.00
336;DHT22;156;48.738;9.228;2023-03-14T17:09:03;8.10;1.00
336;DHT22;156;48.738;9.228;2023-03-14T17:11:31;8.00;1.00
336;DHT22;156;48.738;9.228;2023-03-14T17:14:00;7.90;1.00
336;DHT22;156;48.738;9.228;2023-03-14T17:16:27;7.80;1.00
336;DHT22;156;48.738;9.228;2023-03-14T17:18:55;7.80;1.00
336;DHT22;156;48.738;9.228;2023-03-14T17:21:22;7.80;1.00
336;DHT22;156;48.738;9.228;2023-03-14T17:23:50;7.90;1.00
336;DHT22;156;48.738;9.228;2023-03-14T17:26:16;8.00;1.00